createdAt,value
2018-02-03T00:02:10.155Z,10.33
2018-02-03T00:04:37.930Z,10.03
2018-02-03T00:07:05.584Z,10.83
2018-02-03T00:09:33.270Z,10.20
2018-02-03T00:12:01.069Z,10.63
2018-02-03T00:14:28.730Z,11.37
2018-02-03T00:16:56.490Z,10.37
2018-02-03T00:19:24.963Z,10.10
2018-02-03T00:21:52.665Z,9.60
2018-02-03T00:24:20.389Z,9.63
2018-02-03T00:26:48.298Z,10.20
2018-02-03T00:29:16.258Z,9.70
2018-02-03T00:31:45.025Z,9.87
2018-02-03T00:34:12.699Z,9.67
2018-02-03T00:36:40.372Z,9.10
2018-02-03T00:39:08.055Z,10.63
2018-02-03T00:41:35.737Z,9.63
2018-02-03T00:44:04.276Z,10.67
2018-02-03T00:46:31.957Z,9.23
2018-02-03T00:48:59.671Z,8.80
2018-02-03T00:51:27.368Z,8.97
2018-02-03T00:53:55.155Z,8.27
2018-02-03T00:56:23.515Z,8.83
2018-02-03T00:58:51.208Z,7.80
2018-02-03T01:01:20.998Z,8.90
2018-02-03T01:03:48.756Z,8.43
2018-02-03T01:06:16.554Z,9.33
2018-02-03T01:08:44.270Z,7.70
2018-02-03T01:11:11.926Z,7.60
2018-02-03T01:13:39.619Z,7.67
2018-02-03T01:16:07.310Z,8.00
2018-02-03T01:18:35.077Z,7.30
2018-02-03T01:21:02.963Z,7.23
2018-02-03T01:23:30.789Z,7.90
2018-02-03T01:25:59.280Z,7.20
2018-02-03T01:28:26.948Z,7.80
2018-02-03T01:30:54.796Z,6.97
2018-02-03T01:33:22.513Z,7.27
2018-02-03T01:35:50.121Z,6.60
2018-02-03T01:38:17.823Z,8.20
2018-02-03T01:40:45.470Z,6.60
2018-02-03T01:43:13.113Z,7.13
2018-02-03T01:45:40.777Z,7.03
2018-02-03T01:48:08.445Z,6.30
2018-02-03T01:50:36.125Z,8.20
2018-02-03T01:53:04.598Z,7.60
2018-02-03T01:55:32.355Z,6.90
2018-02-03T01:58:00.039Z,6.80
2018-02-03T02:00:31.635Z,7.00
2018-02-03T02:02:59.291Z,6.60
2018-02-03T02:05:26.976Z,6.97
2018-02-03T02:07:54.640Z,6.67
2018-02-03T02:10:22.327Z,6.53
2018-02-03T02:12:50.087Z,7.07
2018-02-03T02:15:17.844Z,6.73
2018-02-03T02:17:45.510Z,6.97
2018-02-03T02:20:13.164Z,7.23
2018-02-03T02:22:40.818Z,6.73
2018-02-03T02:25:08.494Z,6.80
2018-02-03T02:27:36.138Z,6.97
2018-02-03T02:30:07.227Z,7.30
2018-02-03T02:32:35.651Z,6.67
2018-02-03T02:35:03.346Z,6.83
2018-02-03T02:37:31.012Z,6.77
2018-02-03T02:39:58.685Z,6.53
2018-02-03T02:42:26.324Z,6.57
2018-02-03T02:44:53.997Z,7.00
2018-02-03T02:47:21.622Z,7.00
2018-02-03T02:49:49.295Z,6.60
2018-02-03T02:52:16.955Z,7.60
2018-02-03T02:54:44.587Z,7.10
2018-02-03T02:57:12.996Z,6.70
2018-02-03T02:59:40.688Z,6.23
2018-02-03T03:02:08.342Z,6.80
2018-02-03T03:04:36.017Z,6.90
2018-02-03T03:07:03.701Z,6.23
2018-02-03T03:09:31.415Z,6.50
2018-02-03T03:11:59.047Z,6.33
2018-02-03T03:14:27.004Z,7.00
2018-02-03T03:16:54.750Z,6.80
2018-02-03T03:19:22.426Z,6.90
2018-02-03T03:21:53.308Z,7.23
2018-02-03T03:24:20.977Z,6.77
2018-02-03T03:26:48.650Z,7.13
2018-02-03T03:29:16.295Z,7.37
2018-02-03T03:31:44.470Z,7.10
2018-02-03T03:34:12.339Z,7.73
2018-02-03T03:36:40.007Z,7.20
2018-02-03T03:39:08.070Z,7.03
2018-02-03T03:41:35.739Z,6.80
2018-02-03T03:44:03.405Z,7.33
2018-02-03T03:46:31.068Z,7.40
2018-02-03T03:48:58.727Z,7.57
2018-02-03T03:51:27.535Z,8.23
2018-02-03T03:53:55.223Z,8.13
2018-02-03T03:56:22.939Z,7.07
2018-02-03T03:58:51.115Z,7.20
2018-02-03T04:01:18.801Z,7.60
2018-02-03T04:03:46.447Z,7.47
2018-02-03T04:06:14.160Z,7.73
2018-02-03T04:08:41.889Z,8.07
2018-02-03T04:11:09.894Z,7.60
2018-02-03T04:13:37.535Z,7.73
2018-02-03T04:16:05.194Z,7.37
2018-02-03T04:18:32.898Z,7.87
2018-02-03T04:21:00.728Z,6.80
2018-02-03T04:23:28.424Z,7.00
2018-02-03T04:25:56.096Z,6.97
2018-02-03T04:28:24.698Z,8.23
2018-02-03T04:30:53.153Z,7.27
2018-02-03T04:33:21.000Z,7.30
2018-02-03T04:35:48.662Z,7.47
2018-02-03T04:38:16.350Z,7.40
2018-02-03T04:40:44.056Z,8.27
2018-02-03T04:43:11.744Z,7.80
2018-02-03T04:45:39.403Z,8.00
2018-02-03T04:48:07.071Z,8.73
2018-02-03T04:50:34.849Z,10.17
2018-02-03T04:53:02.519Z,9.50
2018-02-03T04:55:30.265Z,10.50
2018-02-03T04:57:57.927Z,11.30
2018-02-03T05:00:25.655Z,10.67
2018-02-03T05:02:53.469Z,10.03
2018-02-03T05:05:21.102Z,10.27
2018-02-03T05:07:48.786Z,10.43
2018-02-03T05:10:16.474Z,10.27
2018-02-03T05:12:44.155Z,9.63
2018-02-03T05:15:11.982Z,9.33
2018-02-03T05:17:39.825Z,9.10
2018-02-03T05:20:08.644Z,8.93
2018-02-03T05:22:36.301Z,9.87
2018-02-03T05:25:03.967Z,8.23
2018-02-03T05:27:31.895Z,8.30
2018-02-03T05:30:00.377Z,7.50
2018-02-03T05:32:28.033Z,8.87
2018-02-03T05:34:56.542Z,8.00
2018-02-03T05:37:24.421Z,7.17
2018-02-03T05:39:52.116Z,7.23
2018-02-03T05:42:19.774Z,7.30
2018-02-03T05:44:48.416Z,7.97
2018-02-03T05:47:16.129Z,7.03
2018-02-03T05:49:43.863Z,7.10
2018-02-03T05:52:12.324Z,7.07
2018-02-03T05:54:40.007Z,6.77
2018-02-03T05:57:08.415Z,6.30
2018-02-03T05:59:36.181Z,6.30
2018-02-03T06:02:04.711Z,6.80
2018-02-03T06:04:32.611Z,6.23
2018-02-03T06:07:00.756Z,5.87
2018-02-03T06:09:28.388Z,5.63
2018-02-03T06:11:57.239Z,6.47
2018-02-03T06:14:25.080Z,5.73
2018-02-03T06:16:52.888Z,5.70
2018-02-03T06:19:21.213Z,5.20
2018-02-03T06:21:48.808Z,6.03
2018-02-03T06:24:16.995Z,5.67
2018-02-03T06:26:44.662Z,5.27
2018-02-03T06:29:12.461Z,5.70
2018-02-03T06:31:40.309Z,5.10
2018-02-03T06:34:08.184Z,5.03
2018-02-03T06:36:36.068Z,5.40
2018-02-03T06:39:04.572Z,6.20
2018-02-03T06:41:46.609Z,5.00
2018-02-03T06:44:14.283Z,5.00
2018-02-03T06:46:41.968Z,5.90
2018-02-03T06:49:09.770Z,5.90
2018-02-03T06:51:37.538Z,5.87
2018-02-03T06:54:05.514Z,5.93
2018-02-03T06:56:33.411Z,5.47
2018-02-03T06:59:01.310Z,5.80
2018-02-03T07:01:29.308Z,5.90
2018-02-03T07:03:56.972Z,6.10
2018-02-03T07:06:24.729Z,6.13
2018-02-03T07:08:52.360Z,5.87
2018-02-03T07:11:21.105Z,6.37
2018-02-03T07:13:48.795Z,6.33
2018-02-03T07:16:16.628Z,6.00
2018-02-03T07:18:44.274Z,5.70
2018-02-03T07:21:12.061Z,6.20
2018-02-03T07:23:39.881Z,6.67
2018-02-03T07:26:07.581Z,5.70
2018-02-03T07:28:35.445Z,6.90
2018-02-03T07:31:03.218Z,5.57
2018-02-03T07:33:31.019Z,6.30
2018-02-03T07:35:58.646Z,5.87
2018-02-03T07:38:26.368Z,5.80
2018-02-03T07:40:58.321Z,6.90
2018-02-03T07:43:26.254Z,6.23
2018-02-03T07:45:53.941Z,6.87
2018-02-03T07:48:21.995Z,7.73
2018-02-03T07:50:49.638Z,7.83
2018-02-03T07:53:17.341Z,7.97
2018-02-03T07:55:45.016Z,7.33
2018-02-03T07:58:12.740Z,7.17
2018-02-03T08:00:40.462Z,7.83
2018-02-03T08:03:08.126Z,7.13
2018-02-03T08:05:35.791Z,7.80
2018-02-03T08:08:03.451Z,7.23
2018-02-03T08:10:37.892Z,7.80
2018-02-03T08:13:06.378Z,8.40
2018-02-03T08:15:34.049Z,7.80
2018-02-03T08:18:01.812Z,7.33
2018-02-03T08:20:29.562Z,8.17
2018-02-03T08:22:58.029Z,7.20
2018-02-03T08:25:25.699Z,6.93
2018-02-03T08:27:53.486Z,7.23
2018-02-03T08:30:21.204Z,7.53
2018-02-03T08:32:49.693Z,7.20
2018-02-03T08:35:17.379Z,7.50
2018-02-03T08:37:45.322Z,7.13
2018-02-03T08:40:14.223Z,7.80
2018-02-03T08:42:41.969Z,7.93
2018-02-03T08:45:09.705Z,7.70
2018-02-03T08:47:37.454Z,7.47
2018-02-03T08:50:06.065Z,8.13
2018-02-03T08:52:33.821Z,8.07
2018-02-03T08:55:01.552Z,8.13
2018-02-03T08:57:30.013Z,7.53
2018-02-03T08:59:57.768Z,7.93
2018-02-03T09:02:25.423Z,8.43
2018-02-03T09:04:53.093Z,7.77
2018-02-03T09:07:20.881Z,7.33
2018-02-03T09:09:48.574Z,7.93
2018-02-03T09:12:16.449Z,9.90
2018-02-03T09:14:44.240Z,8.87
2018-02-03T09:17:11.983Z,8.70
2018-02-03T09:19:39.623Z,8.47
2018-02-03T09:22:07.301Z,8.47
2018-02-03T09:24:34.970Z,9.00
2018-02-03T09:27:02.674Z,8.63
2018-02-03T09:29:30.335Z,8.50
2018-02-03T09:32:02.262Z,9.10
2018-02-03T09:34:29.993Z,7.87
2018-02-03T09:36:58.430Z,8.67
2018-02-03T09:39:26.100Z,8.33
2018-02-03T09:41:53.780Z,7.57
2018-02-03T09:44:21.506Z,8.57
2018-02-03T09:46:49.207Z,8.73
2018-02-03T09:49:17.226Z,9.53
2018-02-03T09:51:44.902Z,9.17
2018-02-03T09:54:12.638Z,9.57
2018-02-03T09:56:41.256Z,9.27
2018-02-03T09:59:08.932Z,9.73
2018-02-03T10:01:39.735Z,9.70
2018-02-03T10:04:08.364Z,9.03
2018-02-03T10:06:36.035Z,10.67
2018-02-03T10:09:03.749Z,9.87
2018-02-03T10:11:31.418Z,11.20
2018-02-03T10:13:59.092Z,10.90
2018-02-03T10:16:26.821Z,10.97
2018-02-03T10:18:55.311Z,9.70
2018-02-03T10:21:23.035Z,9.10
2018-02-03T10:23:50.711Z,9.63
2018-02-03T10:26:18.390Z,10.30
2018-02-03T10:28:46.266Z,9.83
2018-02-03T10:31:15.906Z,11.00
2018-02-03T10:33:43.621Z,11.27
2018-02-03T10:36:11.312Z,11.07
2018-02-03T10:38:39.029Z,10.57
2018-02-03T10:41:07.076Z,11.10
2018-02-03T10:43:34.753Z,9.40
2018-02-03T10:46:02.441Z,9.90
2018-02-03T10:48:30.581Z,9.80
2018-02-03T10:50:58.287Z,10.00
2018-02-03T10:53:27.561Z,9.67
2018-02-03T10:55:55.266Z,9.83
2018-02-03T10:58:22.952Z,8.87
2018-02-03T11:00:54.903Z,8.30
2018-02-03T11:03:23.312Z,7.87
2018-02-03T11:05:50.964Z,6.73
2018-02-03T11:08:18.643Z,7.47
2018-02-03T11:10:46.295Z,8.20
2018-02-03T11:13:13.965Z,7.40
2018-02-03T11:15:41.662Z,8.10
2018-02-03T11:18:09.294Z,9.53
2018-02-03T11:20:36.969Z,7.97
2018-02-03T11:23:04.614Z,7.43
2018-02-03T11:25:35.072Z,8.23
2018-02-03T11:28:02.752Z,8.37
2018-02-03T11:30:31.175Z,8.87
2018-02-03T11:32:58.852Z,7.97
2018-02-03T11:35:26.613Z,8.23
2018-02-03T11:37:54.294Z,7.97
2018-02-03T11:40:22.420Z,8.40
2018-02-03T11:42:53.095Z,8.10
2018-02-03T11:45:20.710Z,8.03
2018-02-03T11:47:48.483Z,8.63
2018-02-03T11:50:17.100Z,8.73
2018-02-03T11:52:44.778Z,9.10
2018-02-03T11:55:17.121Z,9.33
2018-02-03T11:57:45.158Z,8.40
2018-02-03T12:00:12.834Z,9.63
2018-02-03T12:02:40.515Z,10.37
2018-02-03T12:05:08.195Z,9.20
2018-02-03T12:07:35.881Z,10.17
2018-02-03T12:10:14.260Z,9.17
2018-02-03T12:12:43.728Z,9.77
2018-02-03T12:15:11.386Z,9.80
2018-02-03T12:17:39.064Z,9.37
2018-02-03T12:20:07.254Z,9.60
2018-02-03T12:22:34.924Z,9.90
2018-02-03T12:25:02.593Z,10.53
2018-02-03T12:27:30.285Z,10.97
2018-02-03T12:30:00.187Z,11.50
2018-02-03T12:32:28.629Z,11.60
2018-02-03T12:34:56.308Z,12.30
2018-02-03T12:37:23.971Z,10.70
2018-02-03T12:39:51.927Z,10.77
2018-02-03T12:42:20.053Z,10.67
2018-02-03T12:44:47.741Z,10.27
2018-02-03T12:47:15.410Z,11.87
2018-02-03T12:49:43.121Z,11.87
2018-02-03T12:52:10.823Z,13.93
2018-02-03T12:54:38.551Z,12.67
2018-02-03T12:57:06.228Z,13.73
2018-02-03T12:59:35.182Z,13.23
2018-02-03T13:02:02.984Z,13.20
2018-02-03T13:04:31.435Z,15.00
2018-02-03T13:06:59.514Z,15.07
2018-02-03T13:09:27.287Z,14.77
2018-02-03T13:11:55.249Z,15.07
2018-02-03T13:14:23.712Z,14.57
2018-02-03T13:16:51.381Z,12.93
2018-02-03T13:19:21.394Z,12.27
2018-02-03T13:21:50.291Z,13.60
2018-02-03T13:24:18.322Z,13.17
2018-02-03T13:26:45.989Z,13.00
2018-02-03T13:29:13.675Z,12.50
2018-02-03T13:31:41.407Z,13.10
2018-02-03T13:34:09.870Z,11.70
2018-02-03T13:36:37.534Z,13.43
2018-02-03T13:39:06.006Z,13.17
2018-02-03T13:41:33.673Z,13.73
2018-02-03T13:44:01.348Z,13.57
2018-02-03T13:46:28.966Z,11.40
2018-02-03T13:48:57.517Z,13.03
2018-02-03T13:51:26.112Z,13.20
2018-02-03T13:53:53.787Z,13.07
2018-02-03T13:56:21.523Z,13.63
2018-02-03T13:58:49.205Z,13.50
2018-02-03T14:01:17.360Z,12.37
2018-02-03T14:03:45.835Z,13.43
2018-02-03T14:06:13.483Z,13.40
2018-02-03T14:08:41.169Z,15.17
2018-02-03T14:11:08.996Z,15.30
2018-02-03T14:13:37.512Z,13.60
2018-02-03T14:16:05.274Z,14.27
2018-02-03T14:18:32.979Z,13.80
2018-02-03T14:21:01.927Z,9.60
2018-02-03T14:23:30.488Z,14.07
2018-02-03T14:26:03.931Z,13.30
2018-02-03T14:28:31.744Z,16.57
2018-02-03T14:30:59.436Z,10.60
2018-02-03T14:33:27.166Z,8.60
2018-02-03T14:35:55.140Z,8.10
2018-02-03T14:38:22.925Z,8.63
2018-02-03T14:40:51.756Z,8.03
2018-02-03T14:43:19.412Z,8.80
2018-02-03T14:45:48.570Z,7.87
2018-02-03T14:48:16.760Z,9.87
2018-02-03T14:50:44.583Z,8.47
2018-02-03T14:53:12.972Z,7.87
2018-02-03T14:55:40.636Z,7.73
2018-02-03T14:58:08.269Z,6.07
2018-02-03T15:00:35.923Z,6.43
2018-02-03T15:03:03.612Z,7.63
2018-02-03T15:05:31.220Z,8.50
2018-02-03T15:07:58.940Z,9.33
2018-02-03T15:10:27.760Z,31.03
2018-02-03T15:12:55.467Z,24.73
2018-02-03T15:15:23.165Z,10.30
2018-02-03T15:17:50.848Z,11.43
2018-02-03T15:20:18.515Z,11.70
2018-02-03T15:22:46.181Z,13.37
2018-02-03T15:25:13.888Z,11.97
2018-02-03T15:27:41.567Z,12.77
2018-02-03T15:30:09.230Z,12.67
2018-02-03T15:32:37.146Z,11.93
2018-02-03T15:35:04.778Z,11.60
2018-02-03T15:37:32.430Z,12.23
2018-02-03T15:40:01.253Z,13.47
2018-02-03T15:42:28.914Z,14.17
2018-02-03T15:44:56.584Z,12.50
2018-02-03T15:47:24.264Z,11.30
2018-02-03T15:49:51.919Z,11.70
2018-02-03T15:52:19.586Z,14.30
2018-02-03T15:54:47.273Z,11.33
2018-02-03T15:57:14.975Z,12.00
2018-02-03T15:59:42.640Z,10.40
2018-02-03T16:02:10.356Z,10.80
2018-02-03T16:04:38.047Z,9.00
2018-02-03T16:07:05.763Z,10.10
2018-02-03T16:09:33.449Z,9.80
2018-02-03T16:12:01.967Z,11.87
2018-02-03T16:14:29.654Z,13.37
2018-02-03T16:16:57.360Z,13.40
2018-02-03T16:19:25.776Z,11.93
2018-02-03T16:21:53.470Z,11.90
2018-02-03T16:24:21.130Z,16.50
2018-02-03T16:26:48.800Z,13.97
2018-02-03T16:29:16.516Z,13.80
2018-02-03T16:31:45.200Z,12.77
2018-02-03T16:34:12.886Z,13.40
2018-02-03T16:36:40.567Z,13.60
2018-02-03T16:39:08.243Z,15.27
2018-02-03T16:41:35.924Z,13.03
2018-02-03T16:44:04.401Z,16.50
2018-02-03T16:46:32.072Z,15.47
2018-02-03T16:49:00.515Z,13.13
2018-02-03T16:51:28.213Z,13.43
2018-02-03T16:53:56.654Z,14.83
2018-02-03T16:56:48.075Z,15.83
2018-02-03T16:59:15.806Z,22.83
2018-02-03T17:01:43.467Z,15.63
2018-02-03T17:04:11.100Z,20.90
2018-02-03T17:06:38.771Z,20.60
2018-02-03T17:09:07.663Z,16.70
2018-02-03T17:14:08.569Z,17.03
2018-02-03T17:16:37.085Z,16.43
2018-02-03T17:19:04.753Z,29.37
2018-02-03T17:21:33.367Z,18.20
2018-02-03T17:24:02.255Z,18.13
2018-02-03T17:26:30.711Z,26.33
2018-02-03T17:28:59.346Z,19.27
2018-02-03T17:31:27.068Z,28.00
2018-02-03T17:33:55.286Z,22.57
2018-02-03T17:36:28.940Z,21.87
2018-02-03T17:39:03.172Z,14.90
2018-02-03T17:41:31.074Z,12.67
2018-02-03T17:43:59.985Z,13.73
2018-02-03T17:46:33.982Z,11.83
2018-02-03T17:49:02.012Z,16.20
2018-02-03T17:51:30.353Z,12.30
2018-02-03T17:53:58.690Z,13.43
2018-02-03T17:56:32.097Z,12.07
2018-02-03T17:59:01.049Z,11.67
2018-02-03T18:01:29.032Z,11.50
2018-02-03T18:04:02.245Z,11.50
2018-02-03T18:06:39.888Z,10.73
2018-02-03T18:09:13.925Z,10.93
2018-02-03T18:11:46.744Z,10.57
2018-02-03T18:14:20.402Z,10.47
2018-02-03T18:16:59.206Z,11.13
2018-02-03T18:19:33.285Z,11.00
2018-02-03T18:22:01.267Z,10.97
2018-02-03T18:24:30.580Z,10.20
2018-02-03T18:26:58.194Z,10.50
2018-02-03T18:29:26.089Z,9.93
2018-02-03T18:31:56.248Z,9.80
2018-02-03T18:34:24.897Z,10.77
2018-02-03T18:37:01.505Z,10.27
2018-02-03T18:39:34.947Z,11.00
2018-02-03T18:42:08.231Z,10.93
2018-02-03T18:44:41.973Z,11.37
2018-02-03T18:47:16.122Z,12.30
2018-02-03T18:49:50.845Z,12.93
2018-02-03T18:52:19.922Z,12.50
2018-02-03T18:54:48.651Z,12.30
2018-02-03T18:57:18.364Z,12.20
2018-02-03T18:59:46.072Z,11.70
2018-02-03T19:02:15.411Z,12.20
2018-02-03T19:04:43.214Z,12.37
2018-02-03T19:07:12.421Z,12.60
2018-02-03T19:09:40.299Z,12.93
2018-02-03T19:12:08.740Z,12.90
2018-02-03T19:14:36.419Z,13.13
2018-02-03T19:17:05.490Z,13.17
2018-02-03T19:19:36.545Z,13.43
2018-02-03T19:22:05.963Z,35.43
2018-02-03T19:24:37.767Z,18.73
2018-02-03T19:27:05.437Z,21.30
2018-02-03T19:29:34.562Z,26.43
2018-02-03T19:32:02.458Z,16.03
2018-02-03T19:34:31.518Z,16.97
2018-02-03T19:36:59.251Z,15.53
2018-02-03T19:39:28.135Z,19.30
2018-02-03T19:41:55.791Z,16.67
2018-02-03T19:44:23.483Z,16.33
2018-02-03T19:46:51.183Z,16.63
2018-02-03T19:49:19.077Z,16.13
2018-02-03T19:51:46.734Z,16.00
2018-02-03T19:54:15.226Z,15.67
2018-02-03T19:56:42.960Z,14.30
2018-02-03T19:59:10.627Z,14.33
2018-02-03T20:01:39.428Z,15.03
2018-02-03T20:04:07.443Z,15.20
2018-02-03T20:06:35.131Z,13.60
2018-02-03T20:09:03.869Z,13.53
2018-02-03T20:11:31.591Z,15.33
2018-02-03T20:13:59.289Z,14.00
2018-02-03T20:16:27.737Z,13.83
2018-02-03T20:18:55.426Z,13.40
2018-02-03T20:21:23.106Z,14.93
2018-02-03T20:23:50.815Z,33.23
2018-02-03T20:26:18.553Z,18.73
2018-02-03T20:28:46.157Z,59.73
2018-02-03T20:31:15.062Z,24.03
2018-02-03T20:33:42.735Z,29.73
2018-02-03T20:36:10.429Z,16.30
2018-02-03T20:38:38.124Z,15.03
2018-02-03T20:41:06.572Z,16.27
2018-02-03T20:43:34.236Z,15.07
2018-02-03T20:46:02.159Z,14.30
2018-02-03T20:48:29.833Z,16.17
2018-02-03T20:50:57.487Z,15.17
2018-02-03T20:53:25.499Z,14.23
2018-02-03T20:55:55.741Z,14.27
2018-02-03T20:58:25.032Z,14.20
2018-02-03T21:00:52.974Z,14.30
2018-02-03T21:03:20.680Z,14.07
2018-02-03T21:05:48.937Z,14.27
2018-02-03T21:08:17.383Z,15.33
2018-02-03T21:10:45.060Z,14.67
2018-02-03T21:13:12.755Z,15.10
2018-02-03T21:15:40.462Z,13.73
2018-02-03T21:18:08.131Z,13.53
2018-02-03T21:20:36.737Z,14.20
2018-02-03T21:23:05.490Z,16.27
2018-02-03T21:25:33.153Z,14.33
2018-02-03T21:28:00.844Z,16.87
2018-02-03T21:30:28.532Z,15.57
2018-02-03T21:32:56.195Z,15.17
2018-02-03T21:35:24.621Z,16.10
2018-02-03T21:37:52.333Z,14.20
2018-02-03T21:40:20.819Z,16.13
2018-02-03T21:42:48.507Z,13.20
2018-02-03T21:45:16.153Z,13.60
2018-02-03T21:47:44.606Z,14.23
2018-02-03T21:50:13.837Z,19.80
2018-02-03T21:52:41.656Z,13.90
2018-02-03T21:55:09.811Z,14.00
2018-02-03T21:57:37.461Z,14.00
2018-02-03T22:00:05.150Z,12.00
2018-02-03T22:02:34.282Z,15.10
2018-02-03T22:05:03.114Z,13.67
2018-02-03T22:07:30.818Z,14.77
2018-02-03T22:09:58.504Z,13.43
2018-02-03T22:12:26.967Z,13.57
2018-02-03T22:14:54.664Z,14.23
2018-02-03T22:17:23.112Z,14.30
2018-02-03T22:19:51.802Z,16.43
2018-02-03T22:22:19.423Z,15.30
2018-02-03T22:24:47.092Z,20.27
2018-02-03T22:27:14.762Z,18.93
2018-02-03T22:29:42.457Z,15.60
2018-02-03T22:32:10.168Z,14.57
2018-02-03T22:34:38.342Z,14.93
2018-02-03T22:37:06.047Z,15.00
2018-02-03T22:39:33.713Z,14.60
2018-02-03T22:42:02.693Z,14.00
2018-02-03T22:44:30.365Z,14.17
2018-02-03T22:46:58.053Z,14.93
2018-02-03T22:49:27.209Z,15.13
2018-02-03T22:51:54.909Z,15.90
2018-02-03T22:54:22.609Z,15.60
2018-02-03T22:56:50.294Z,15.70
2018-02-03T22:59:17.974Z,14.90
2018-02-03T23:01:46.993Z,14.80
2018-02-03T23:04:21.459Z,13.90
2018-02-03T23:06:49.513Z,14.47
2018-02-03T23:09:17.390Z,15.90
2018-02-03T23:11:45.127Z,15.07
2018-02-03T23:14:13.633Z,15.77
2018-02-03T23:16:45.165Z,15.23
2018-02-03T23:19:13.278Z,15.57
2018-02-03T23:21:43.284Z,14.50
2018-02-03T23:24:13.130Z,14.33
2018-02-03T23:26:40.964Z,13.93
2018-02-03T23:29:08.638Z,15.03
2018-02-03T23:31:36.303Z,14.10
2018-02-03T23:34:04.007Z,15.37
2018-02-03T23:36:33.419Z,14.40
2018-02-03T23:39:01.574Z,14.07
2018-02-03T23:41:29.229Z,14.80
2018-02-03T23:43:56.928Z,13.57
2018-02-03T23:46:25.839Z,13.70
2018-02-03T23:48:54.270Z,13.77
2018-02-03T23:51:22.112Z,13.30
2018-02-03T23:53:49.796Z,13.90
2018-02-03T23:56:17.466Z,13.67
2018-02-03T23:58:46.054Z,14.67
